LPPTLESA

Guest
Details From LPPT - Lisboa
To LESA - Salamanca
Flight Number -
Tags Generated
Created
Modified
Stats Distance 212 nm / 392 km
Max Altitude 0 ft / 0 m
Waypoints 2
Social Downloads 0
Likes 0
Share VATSIM

Download

Looking for another format? Having issues loading an existing format? Contact us
Advertisement - Login to hide

Notes

Generated

Route

LPPT LESA

ID Type Via Altitude Latitude Longitude Leg Dist Tot Dist Heading (true) Name
O LPPT APT - 0 ft / 0 m 38.78624˚ -9.13721˚ - 0 nm - -
O LESA APT - 0 ft / 0 m 40.94979˚ -5.51276˚ 211 nm 211 nm 51° / 53° -

Altitude Profile

Advertisement - Login to hide

Weather


0- 5 10 15 20 25 30 35+ Temperature / ° C

Clouds and Precipitation
Forecast for 2017-12-14 06:00 UTC. Updated an hour ago

Ground ~20,000 ft ~40,000 ft Winds

LPPT

Details ICAO LPPT (LIS)
Name Lisboa
Region Portugal
Timezone Europe/Lisbon (UTC+0.0)
Stats Elevation 374 ft / 114 m (AMSL)
Location 38.778559° -9.135146°
Runways 2
Magnetic Variation 2.364° W

METAR

LPPT 140630Z 23004KT 9999 FEW003 BKN012 13/13 Q1025

Decode

TAF

TAF LPPT 140500Z 1406/1512 VRB03KT 6000 BKN008 TEMPO 1406/1410 2000 BR BKN003 BECMG 1410/1412 27008KT 9999 SCT012 BKN018 PROB40 TEMPO 1412/1509 3000 -RADZ BR SCT004 BKN008 BECMG 1509/1512 33007KT

Decode

Departure Runways

ID Width Length Bearing (true) Bearing (mag) Surface Threshold Offset Overrun Length
03 148 ft / 45 m 12,518 ft / 3,815 m 22.70° 25.06° Asphalt 296 ft / 90 m 0 ft / 0 m
17 148 ft / 45 m 7,922 ft / 2,415 m 168.38° 170.74° Asphalt 0 ft / 0 m 0 ft / 0 m
21 148 ft / 45 m 12,518 ft / 3,815 m 202.72° 205.08° Asphalt 1,969 ft / 600 m 0 ft / 0 m
35 148 ft / 45 m 7,922 ft / 2,415 m 348.38° 350.74° Asphalt 492 ft / 150 m 0 ft / 0 m

LESA

Details ICAO LESA (SLM)
Name Salamanca
Region Spain
Timezone Europe/Madrid (UTC+1.0)
Stats Elevation 2,595 ft / 791 m (AMSL)
Location 40.952150° -5.501645°
Runways 2
Magnetic Variation 1.293° W

METAR

LESA 140630Z 25013KT 4000 -DZ OVC006 09/08 Q1022

Decode

TAF

TAF LESA 140500Z 1406/1506 25013KT 9999 FEW002 BKN004 TX11/1415Z TN06/1506Z PROB30 TEMPO 1406/1410 3000 BR BKN001 PROB30 TEMPO 1406/1410 0200 FG FEW001 TEMPO 1413/1424 RA TEMPO 1501/1503 OVC011 BECMG 1504/1506 SCT014

Decode

Destination Runways

ID Width Length Bearing (true) Bearing (mag) Surface Threshold Offset Overrun Length
03 197 ft / 60 m 8,252 ft / 2,515 m 27.81° 29.10° Asphalt 0 ft / 0 m 902 ft / 275 m
08 400 ft / 122 m 6,601 ft / 2,012 m 74.07° 75.36° Dirt 0 ft / 0 m 0 ft / 0 m
21 197 ft / 60 m 8,252 ft / 2,515 m 207.82° 209.11° Asphalt 0 ft / 0 m 902 ft / 275 m
26 400 ft / 122 m 6,601 ft / 2,012 m 254.09° 255.38° Dirt 0 ft / 0 m 0 ft / 0 m

Approach Navaids

Runway Type Ident Frequency Range Bearing (true) Bearing (mag) Slope Elevation
21 Localiser IALR 110.10 MHz 18 nm / 33 km 207.81° 209.10° - 2,595 ft / 791 m (AMSL)
21 Glidescope IALR 110.10 MHz 10 nm / 19 km 207.82° 209.11° 3.10° 2,595 ft / 791 m (AMSL)

Popular Alternatives